Time;durP1;ratioP1;P1;durP2;ratioP2;P2;SDS_P1;SDS_P2;PMS_P1;PMS_P2;Temp;Humidity;BMP_temperature;BMP_pressure;BME280_temperature;BME280_humidity;BME280_pressure;Samples;Min_cycle;Max_cycle;Signal;HPM_P1;HPM_P2
2023/01/04 00:02:02;;;;;;;211.35;154.13;;;;;;;;;;5112259;27;20023;-79
2023/01/04 00:04:27;;;;;;;95.18;77.05;;;;;;;;;;5114045;27;20051;-79
2023/01/04 00:06:53;;;;;;;82.22;69.47;;;;;;;;;;5105475;27;20028;-78
2023/01/04 00:09:18;;;;;;;72.72;56.97;;;;;;;;;;5105014;27;20819;-80
2023/01/04 00:11:43;;;;;;;63.15;53.70;;;;;;;;;;5110836;27;20085;-78
2023/01/04 00:14:09;;;;;;;67.00;59.10;;;;;;;;;;5109281;27;20034;-79
2023/01/04 00:16:34;;;;;;;60.80;49.65;;;;;;;;;;5102567;27;20026;-80
2023/01/04 00:19:00;;;;;;;73.45;63.13;;;;;;;;;;5109374;27;20021;-79
2023/01/04 00:21:28;;;;;;;42.00;37.50;;;;;;;;;;5110540;27;20087;-80
2023/01/04 00:23:55;;;;;;;46.88;37.33;;;;;;;;;;5111460;27;20039;-80
2023/01/04 00:26:25;;;;;;;76.93;59.90;;;;;;;;;;5111655;27;20045;-81
2023/01/04 00:28:50;;;;;;;;;;;;;;;;;;5101974;27;20028;-81
2023/01/04 00:31:15;;;;;;;72.00;59.78;;;;;;;;;;5105658;27;19922;-79
2023/01/04 00:33:41;;;;;;;102.22;81.47;;;;;;;;;;5114346;27;20031;-79
2023/01/04 00:36:07;;;;;;;63.67;53.85;;;;;;;;;;5115461;27;20015;-81
2023/01/04 00:38:33;;;;;;;71.78;58.40;;;;;;;;;;5109729;27;20023;-80
2023/01/04 00:40:58;;;;;;;61.88;52.10;;;;;;;;;;5111242;27;20031;-80
2023/01/04 00:43:24;;;;;;;56.03;49.20;;;;;;;;;;5108598;27;20036;-81
2023/01/04 00:45:49;;;;;;;60.70;52.42;;;;;;;;;;5085115;27;20024;-80
2023/01/04 00:48:14;;;;;;;61.15;52.28;;;;;;;;;;5108295;27;20327;-81
2023/01/04 00:50:39;;;;;;;59.45;50.40;;;;;;;;;;5111891;27;20433;-81
2023/01/04 00:53:05;;;;;;;60.80;51.97;;;;;;;;;;5116581;27;20119;-80
2023/01/04 00:55:30;;;;;;;63.70;51.55;;;;;;;;;;5111027;27;20055;-81
2023/01/04 00:57:57;;;;;;;61.00;50.67;;;;;;;;;;5082822;27;20055;-80
2023/01/04 01:00:22;;;;;;;63.58;53.38;;;;;;;;;;5112241;27;20134;-80
2023/01/04 01:02:48;;;;;;;67.80;60.53;;;;;;;;;;5100466;27;20144;-81
2023/01/04 01:05:13;;;;;;;56.20;47.00;;;;;;;;;;5088367;27;20822;-80
2023/01/04 01:07:38;;;;;;;66.60;56.38;;;;;;;;;;5110478;27;20122;-79
2023/01/04 01:10:04;;;;;;;106.70;72.28;;;;;;;;;;5114939;27;20039;-79
2023/01/04 01:12:29;;;;;;;103.05;76.97;;;;;;;;;;5096608;28;20050;-78
2023/01/04 01:14:55;;;;;;;73.55;60.58;;;;;;;;;;5105463;27;20514;-79
2023/01/04 01:17:20;;;;;;;70.00;58.35;;;;;;;;;;5103051;27;20476;-79
2023/01/04 01:19:46;;;;;;;80.50;67.35;;;;;;;;;;5111660;27;20037;-77
2023/01/04 01:22:11;;;;;;;67.35;59.70;;;;;;;;;;5119353;27;20026;-78
2023/01/04 01:24:36;;;;;;;79.78;62.70;;;;;;;;;;5117122;27;20033;-77
2023/01/04 01:27:02;;;;;;;89.90;69.28;;;;;;;;;;5117881;27;20342;-78
2023/01/04 01:29:27;;;;;;;86.30;69.95;;;;;;;;;;5121117;27;20023;-77
2023/01/04 01:31:53;;;;;;;97.45;79.43;;;;;;;;;;5118519;27;20434;-77
2023/01/04 01:34:18;;;;;;;65.55;57.05;;;;;;;;;;5110884;27;20081;-79
2023/01/04 01:36:43;;;;;;;52.00;44.95;;;;;;;;;;5117790;27;20032;-79
2023/01/04 01:39:09;;;;;;;55.90;47.63;;;;;;;;;;5118921;27;20768;-78
2023/01/04 01:41:34;;;;;;;58.97;49.65;;;;;;;;;;5096240;27;20415;-78
2023/01/04 01:44:25;;;;;;;70.85;61.88;;;;;;;;;;5110289;27;20727;-80
2023/01/04 01:46:52;;;;;;;68.97;55.72;;;;;;;;;;5114466;27;20038;-78
2023/01/04 01:49:23;;;;;;;63.38;51.90;;;;;;;;;;5103150;27;20046;-78
2023/01/04 01:51:49;;;;;;;47.00;41.65;;;;;;;;;;5119227;27;20031;-78
2023/01/04 01:54:34;;;;;;;49.08;41.50;;;;;;;;;;5121378;27;20460;-78
2023/01/04 01:57:02;;;;;;;72.50;59.70;;;;;;;;;;5118297;27;20393;-80
2023/01/04 01:59:28;;;;;;;47.80;40.13;;;;;;;;;;5116982;27;22957;-78
2023/01/04 02:01:53;;;;;;;76.68;61.75;;;;;;;;;;5117838;27;20026;-78
2023/01/04 02:04:19;;;;;;;63.13;52.13;;;;;;;;;;5117127;27;20023;-79
2023/01/04 02:06:49;;;;;;;55.75;49.65;;;;;;;;;;5118902;27;20042;-79
2023/01/04 02:09:15;;;;;;;50.72;43.53;;;;;;;;;;5116074;27;20618;-79
2023/01/04 02:11:41;;;;;;;55.20;45.47;;;;;;;;;;5115069;27;20024;-78
2023/01/04 02:17:00;;;;;;;52.15;46.17;;;;;;;;;;5107546;27;20029;-77
2023/01/04 02:19:43;;;;;;;45.72;40.75;;;;;;;;;;5107856;27;20569;-79
2023/01/04 02:22:18;;;;;;;47.58;40.15;;;;;;;;;;5114589;27;20032;-78
2023/01/04 02:25:01;;;;;;;55.17;48.35;;;;;;;;;;5116293;27;20019;-78
2023/01/04 02:27:43;;;;;;;44.22;38.60;;;;;;;;;;5110068;27;20019;-78
2023/01/04 02:30:25;;;;;;;52.40;43.97;;;;;;;;;;5114160;27;20023;-80
2023/01/04 02:32:59;;;;;;;46.47;40.22;;;;;;;;;;5100516;27;20023;-78
2023/01/04 02:35:31;;;;;;;44.92;39.85;;;;;;;;;;5107376;27;20439;-80
2023/01/04 02:37:56;;;;;;;45.58;40.55;;;;;;;;;;5109427;27;20081;-78
2023/01/04 02:40:33;;;;;;;44.10;39.20;;;;;;;;;;5113571;27;20393;-78
2023/01/04 02:46:09;;;;;;;46.60;40.40;;;;;;;;;;5110257;27;20067;-80
2023/01/04 02:51:32;;;;;;;74.85;61.10;;;;;;;;;;5109486;27;20074;-80
2023/01/04 02:53:59;;;;;;;47.25;40.63;;;;;;;;;;5113165;27;20019;-80
2023/01/04 02:56:50;;;;;;;39.88;35.55;;;;;;;;;;5102448;27;20042;-80
2023/01/04 02:59:34;;;;;;;42.10;37.50;;;;;;;;;;5087887;27;20073;-78
2023/01/04 03:07:34;;;;;;;89.57;74.60;;;;;;;;;;5104105;27;20043;-79
2023/01/04 03:10:04;;;;;;;91.82;72.32;;;;;;;;;;5111224;27;20032;-80
2023/01/04 03:12:31;;;;;;;77.55;63.72;;;;;;;;;;5085686;27;20366;-79
2023/01/04 03:15:16;;;;;;;53.92;46.80;;;;;;;;;;5105225;27;20030;-80
2023/01/04 03:17:45;;;;;;;54.17;47.65;;;;;;;;;;5085006;27;20082;-78
2023/01/04 03:20:12;;;;;;;49.35;43.92;;;;;;;;;;5101962;27;20146;-78
2023/01/04 03:36:39;;;;;;;48.40;42.28;;;;;;;;;;5107869;27;20038;-81
2023/01/04 03:50:43;;;;;;;51.80;43.28;;;;;;;;;;5110816;27;20041;-78
2023/01/04 03:53:09;;;;;;;41.13;36.58;;;;;;;;;;5111997;27;20027;-81
2023/01/04 03:55:35;;;;;;;41.22;36.67;;;;;;;;;;5097316;27;20074;-78
2023/01/04 03:58:01;;;;;;;40.08;35.08;;;;;;;;;;5114673;27;20358;-78
2023/01/04 04:00:26;;;;;;;44.15;37.58;;;;;;;;;;5111978;27;20035;-78
2023/01/04 04:02:52;;;;;;;49.53;42.03;;;;;;;;;;5111562;27;20451;-78
2023/01/04 04:10:47;;;;;;;68.70;54.45;;;;;;;;;;5108155;27;20499;-80
2023/01/04 04:13:13;;;;;;;64.65;54.60;;;;;;;;;;5104660;27;20027;-80
2023/01/04 04:15:38;;;;;;;70.07;55.58;;;;;;;;;;5102230;27;20099;-79
2023/01/04 04:18:04;;;;;;;71.10;58.20;;;;;;;;;;5107971;27;20118;-80
2023/01/04 04:20:29;;;;;;;67.63;56.88;;;;;;;;;;5112491;27;20050;-80
2023/01/04 04:22:54;;;;;;;64.95;55.65;;;;;;;;;;5109397;27;20030;-80
2023/01/04 04:25:20;;;;;;;62.60;53.92;;;;;;;;;;5099746;27;20046;-79
2023/01/04 04:27:45;;;;;;;59.67;50.58;;;;;;;;;;5110477;27;20084;-80
2023/01/04 04:30:11;;;;;;;55.72;49.10;;;;;;;;;;5114899;27;20095;-80
2023/01/04 04:32:36;;;;;;;55.47;46.45;;;;;;;;;;5094728;28;20169;-80
2023/01/04 04:35:01;;;;;;;51.22;41.35;;;;;;;;;;5108353;27;20034;-79
2023/01/04 04:37:29;;;;;;;41.70;36.88;;;;;;;;;;5103646;27;20015;-78
2023/01/04 04:39:55;;;;;;;55.33;43.10;;;;;;;;;;5094524;27;20027;-79
2023/01/04 04:42:20;;;;;;;43.70;37.65;;;;;;;;;;5088696;28;20027;-79
2023/01/04 04:44:45;;;;;;;45.55;38.90;;;;;;;;;;5103636;27;20031;-77
2023/01/04 04:47:10;;;;;;;45.85;40.05;;;;;;;;;;5099037;27;20067;-78
2023/01/04 04:49:36;;;;;;;49.20;42.72;;;;;;;;;;5094555;27;20388;-79
2023/01/04 04:52:01;;;;;;;45.92;37.20;;;;;;;;;;5094077;27;20030;-80
2023/01/04 04:54:26;;;;;;;41.70;34.75;;;;;;;;;;5096920;27;20027;-80
2023/01/04 04:56:51;;;;;;;36.13;32.22;;;;;;;;;;5099352;27;20367;-78
2023/01/04 04:59:17;;;;;;;45.88;37.97;;;;;;;;;;5111223;27;20055;-77
2023/01/04 05:01:42;;;;;;;52.13;41.72;;;;;;;;;;5113656;27;20041;-79
2023/01/04 05:04:08;;;;;;;38.35;31.42;;;;;;;;;;5114256;27;20346;-79
2023/01/04 05:06:33;;;;;;;40.60;34.90;;;;;;;;;;5114702;27;20019;-78
2023/01/04 05:08:58;;;;;;;52.67;44.80;;;;;;;;;;5114523;27;20350;-77
2023/01/04 05:14:08;;;;;;;48.63;39.72;;;;;;;;;;5114677;28;20073;-80
2023/01/04 05:16:34;;;;;;;43.60;35.15;;;;;;;;;;5098243;28;20060;-80
2023/01/04 05:18:59;;;;;;;54.70;45.70;;;;;;;;;;5108167;28;20020;-79
2023/01/04 05:21:24;;;;;;;48.65;40.47;;;;;;;;;;5112769;28;20572;-80
2023/01/04 05:23:49;;;;;;;97.68;75.55;;;;;;;;;;5113578;28;20020;-81
2023/01/04 05:26:15;;;;;;;113.97;85.57;;;;;;;;;;5111641;28;20031;-79
2023/01/04 05:28:40;;;;;;;96.57;75.55;;;;;;;;;;5112669;28;20023;-79
2023/01/04 05:31:05;;;;;;;108.72;82.47;;;;;;;;;;5113425;28;20369;-77
2023/01/04 05:33:31;;;;;;;53.60;44.58;;;;;;;;;;5097807;28;20028;-78
2023/01/04 05:35:58;;;;;;;50.13;41.45;;;;;;;;;;5098646;28;20062;-80
2023/01/04 05:38:23;;;;;;;66.75;53.10;;;;;;;;;;5103849;28;20038;-79
2023/01/04 05:40:49;;;;;;;59.22;48.60;;;;;;;;;;5109143;28;20027;-78
2023/01/04 05:43:15;;;;;;;52.08;43.33;;;;;;;;;;5112546;28;20039;-77
2023/01/04 05:45:42;;;;;;;58.63;50.20;;;;;;;;;;5096354;28;20027;-75
2023/01/04 05:48:07;;;;;;;72.03;63.55;;;;;;;;;;5089399;28;20027;-74
2023/01/04 05:50:32;;;;;;;72.30;62.05;;;;;;;;;;5089772;28;20139;-72
2023/01/04 05:52:58;;;;;;;67.88;53.60;;;;;;;;;;5100765;28;21154;-78
2023/01/04 05:55:23;;;;;;;96.45;73.47;;;;;;;;;;5111296;28;20023;-79
2023/01/04 05:57:49;;;;;;;61.45;49.38;;;;;;;;;;5113722;28;20023;-78
2023/01/04 06:00:14;;;;;;;70.82;63.15;;;;;;;;;;5103400;27;20031;-77
2023/01/04 06:02:40;;;;;;;47.50;41.47;;;;;;;;;;5102305;27;20020;-80
2023/01/04 06:05:06;;;;;;;46.65;39.13;;;;;;;;;;5104306;27;20347;-79
2023/01/04 06:07:31;;;;;;;47.88;42.47;;;;;;;;;;5116903;27;20066;-78
2023/01/04 06:09:57;;;;;;;48.33;41.25;;;;;;;;;;5117181;27;20039;-79
2023/01/04 06:12:22;;;;;;;49.85;41.60;;;;;;;;;;5115673;27;20417;-77
2023/01/04 06:14:48;;;;;;;96.15;76.95;;;;;;;;;;5096966;27;20028;-77
2023/01/04 06:17:13;;;;;;;97.18;79.85;;;;;;;;;;5118420;27;20038;-81
2023/01/04 06:19:38;;;;;;;75.55;58.63;;;;;;;;;;5118693;27;20023;-77
2023/01/04 06:22:04;;;;;;;62.47;53.50;;;;;;;;;;5120365;27;20699;-79
2023/01/04 06:24:29;;;;;;;58.90;50.20;;;;;;;;;;5119540;27;20100;-79
2023/01/04 06:26:54;;;;;;;49.90;42.70;;;;;;;;;;5120654;27;20056;-79
2023/01/04 06:29:20;;;;;;;51.78;44.00;;;;;;;;;;5114610;27;20083;-80
2023/01/04 06:31:45;;;;;;;44.65;39.33;;;;;;;;;;5117527;27;20091;-79
2023/01/04 06:34:11;;;;;;;49.53;40.25;;;;;;;;;;5118244;27;20031;-79
2023/01/04 06:36:36;;;;;;;62.75;53.30;;;;;;;;;;5119250;27;20104;-76
2023/01/04 06:39:02;;;;;;;66.07;58.28;;;;;;;;;;5117983;27;20098;-79
2023/01/04 06:41:27;;;;;;;61.67;54.40;;;;;;;;;;5114964;27;20047;-78
2023/01/04 06:43:52;;;;;;;59.75;52.17;;;;;;;;;;5120573;27;20442;-79
2023/01/04 06:46:18;;;;;;;50.70;43.47;;;;;;;;;;5113035;27;20042;-79
2023/01/04 06:48:43;;;;;;;57.83;51.53;;;;;;;;;;5107967;27;20031;-79
2023/01/04 06:51:09;;;;;;;45.88;40.85;;;;;;;;;;5116538;27;20047;-78
2023/01/04 06:53:34;;;;;;;52.85;42.08;;;;;;;;;;5117026;27;20019;-78
2023/01/04 06:55:59;;;;;;;63.88;53.55;;;;;;;;;;5118807;27;20102;-78
2023/01/04 06:58:25;;;;;;;55.28;45.42;;;;;;;;;;5116957;27;20057;-76
2023/01/04 07:00:51;;;;;;;86.05;70.00;;;;;;;;;;5117730;27;20111;-77
2023/01/04 07:03:17;;;;;;;144.20;116.10;;;;;;;;;;5115309;27;20058;-76
2023/01/04 07:05:43;;;;;;;136.68;115.18;;;;;;;;;;5114498;27;20338;-78
2023/01/04 07:08:08;;;;;;;142.77;127.00;;;;;;;;;;5116956;27;20440;-77
2023/01/04 07:10:34;;;;;;;120.82;108.03;;;;;;;;;;5116912;27;20029;-76
2023/01/04 07:12:59;;;;;;;79.57;70.50;;;;;;;;;;5116471;27;20101;-77
2023/01/04 07:15:24;;;;;;;95.88;80.00;;;;;;;;;;5117851;27;20525;-79
2023/01/04 07:17:50;;;;;;;88.50;78.80;;;;;;;;;;5103037;27;20034;-79
2023/01/04 07:20:15;;;;;;;72.82;65.10;;;;;;;;;;5101689;27;20031;-78
2023/01/04 07:22:40;;;;;;;75.63;66.80;;;;;;;;;;5099761;27;20105;-77
2023/01/04 07:25:06;;;;;;;60.33;51.30;;;;;;;;;;5105294;27;20032;-77
2023/01/04 07:27:31;;;;;;;104.60;72.07;;;;;;;;;;5102050;27;20031;-77
2023/01/04 07:29:57;;;;;;;156.13;110.47;;;;;;;;;;5096818;27;20084;-78
2023/01/04 07:32:22;;;;;;;125.93;100.85;;;;;;;;;;5104592;27;20362;-79
2023/01/04 07:34:47;;;;;;;112.93;83.13;;;;;;;;;;5084196;27;20084;-76
2023/01/04 07:37:14;;;;;;;179.63;97.55;;;;;;;;;;5102746;27;20027;-77
2023/01/04 07:39:39;;;;;;;124.22;82.82;;;;;;;;;;5103164;27;20168;-76
2023/01/04 07:42:04;;;;;;;50.42;42.67;;;;;;;;;;5105081;27;20078;-77
2023/01/04 07:44:30;;;;;;;73.57;62.33;;;;;;;;;;5104510;27;20027;-77
2023/01/04 07:46:55;;;;;;;61.92;53.92;;;;;;;;;;5103516;27;20342;-76
2023/01/04 07:49:21;;;;;;;60.80;47.85;;;;;;;;;;5103019;27;20498;-77
2023/01/04 07:51:47;;;;;;;63.53;53.80;;;;;;;;;;5102745;27;20126;-77
2023/01/04 07:54:12;;;;;;;46.78;39.10;;;;;;;;;;5104949;27;20450;-76
2023/01/04 07:56:38;;;;;;;83.43;69.03;;;;;;;;;;5100107;27;20111;-78
2023/01/04 07:59:05;;;;;;;71.63;62.65;;;;;;;;;;5104470;27;20039;-75
2023/01/04 08:01:30;;;;;;;68.25;52.72;;;;;;;;;;5103985;27;20038;-77
2023/01/04 08:03:56;;;;;;;65.30;51.92;;;;;;;;;;5104784;27;20024;-77
2023/01/04 08:06:21;;;;;;;106.28;92.93;;;;;;;;;;5101702;27;20054;-77
2023/01/04 08:08:46;;;;;;;108.35;96.82;;;;;;;;;;5103736;27;20054;-75
2023/01/04 08:11:13;;;;;;;71.28;61.90;;;;;;;;;;5104731;27;20127;-76
2023/01/04 08:13:39;;;;;;;55.40;42.22;;;;;;;;;;5102901;27;22102;-76
2023/01/04 08:16:05;;;;;;;68.80;59.85;;;;;;;;;;5102063;27;20027;-75
2023/01/04 08:18:30;;;;;;;88.78;75.65;;;;;;;;;;5104309;27;20325;-77
2023/01/04 08:21:06;;;;;;;69.15;52.45;;;;;;;;;;5112136;27;20035;-76
2023/01/04 08:23:32;;;;;;;69.90;55.22;;;;;;;;;;5116723;27;20120;-77
2023/01/04 08:26:02;;;;;;;58.45;44.72;;;;;;;;;;5119091;27;20035;-77
2023/01/04 08:28:27;;;;;;;72.82;53.78;;;;;;;;;;5113860;27;20032;-77
2023/01/04 08:30:52;;;;;;;448.10;293.80;;;;;;;;;;5115920;27;20369;-78
2023/01/04 08:33:18;;;;;;;496.23;316.15;;;;;;;;;;5107787;27;20042;-76
2023/01/04 08:35:43;;;;;;;393.50;237.23;;;;;;;;;;5100845;27;20047;-77
2023/01/04 08:38:08;;;;;;;513.70;367.80;;;;;;;;;;5103790;27;20015;-76
2023/01/04 08:40:34;;;;;;;187.18;127.60;;;;;;;;;;5104037;27;20046;-77
2023/01/04 08:42:59;;;;;;;156.90;103.78;;;;;;;;;;5111079;27;20023;-76
2023/01/04 08:45:24;;;;;;;265.85;159.63;;;;;;;;;;5101011;27;20142;-76
2023/01/04 08:47:50;;;;;;;232.00;137.73;;;;;;;;;;5099065;27;23263;-76
2023/01/04 08:50:19;;;;;;;122.65;73.20;;;;;;;;;;5103119;27;20031;-77
2023/01/04 08:52:44;;;;;;;133.70;66.75;;;;;;;;;;5105171;27;20047;-75
2023/01/04 08:55:10;;;;;;;137.93;72.03;;;;;;;;;;5113642;27;20028;-76
2023/01/04 08:57:35;;;;;;;84.72;49.53;;;;;;;;;;5114703;27;20068;-77
2023/01/04 09:00:01;;;;;;;63.03;41.75;;;;;;;;;;5108152;27;20030;-76
2023/01/04 09:02:27;;;;;;;105.53;70.20;;;;;;;;;;5100606;27;20471;-76
2023/01/04 09:04:58;;;;;;;97.53;68.38;;;;;;;;;;5099934;27;20020;-76
2023/01/04 09:07:23;;;;;;;84.30;60.38;;;;;;;;;;5098228;27;20111;-76
2023/01/04 09:09:49;;;;;;;64.50;43.35;;;;;;;;;;5099257;27;20080;-76
2023/01/04 09:12:14;;;;;;;22.98;18.35;;;;;;;;;;5098165;28;20027;-76
2023/01/04 09:14:39;;;;;;;19.10;17.10;;;;;;;;;;5098064;28;20065;-75
2023/01/04 09:17:05;;;;;;;46.78;32.95;;;;;;;;;;5096902;28;20431;-77
2023/01/04 09:19:30;;;;;;;31.33;25.45;;;;;;;;;;5099388;28;20019;-76
2023/01/04 09:21:55;;;;;;;62.90;47.45;;;;;;;;;;5105239;28;20031;-76
2023/01/04 09:24:21;;;;;;;49.92;38.00;;;;;;;;;;5114598;28;20079;-75
2023/01/04 09:26:46;;;;;;;37.30;28.08;;;;;;;;;;5098724;28;20026;-75
2023/01/04 09:29:11;;;;;;;34.28;27.00;;;;;;;;;;5112970;28;20023;-75
2023/01/04 09:31:37;;;;;;;25.65;22.23;;;;;;;;;;5113652;28;20093;-76
2023/01/04 09:34:02;;;;;;;26.80;19.15;;;;;;;;;;5116807;27;20023;-76
2023/01/04 09:36:28;;;;;;;38.95;24.88;;;;;;;;;;5119559;27;20346;-76
2023/01/04 09:38:54;;;;;;;106.75;78.78;;;;;;;;;;5120515;27;20038;-75
2023/01/04 09:41:29;;;;;;;136.10;100.53;;;;;;;;;;5120974;27;20031;-76
2023/01/04 09:43:57;;;;;;;179.73;122.18;;;;;;;;;;5119196;27;20019;-74
2023/01/04 09:46:29;;;;;;;73.85;58.15;;;;;;;;;;5118733;27;20129;-77
2023/01/04 09:49:12;;;;;;;49.97;38.03;;;;;;;;;;5119040;27;20106;-75
2023/01/04 09:51:38;;;;;;;44.00;34.25;;;;;;;;;;5112479;27;20038;-75
2023/01/04 09:54:07;;;;;;;29.65;26.58;;;;;;;;;;5105116;27;20054;-76
2023/01/04 09:56:34;;;;;;;19.48;17.42;;;;;;;;;;5105473;27;20639;-77
2023/01/04 09:59:01;;;;;;;33.45;28.20;;;;;;;;;;5105108;27;20046;-76
2023/01/04 10:01:29;;;;;;;53.42;40.22;;;;;;;;;;5111444;27;20480;-77
2023/01/04 10:04:27;;;;;;;42.97;35.03;;;;;;;;;;5104486;27;20031;-76
2023/01/04 10:06:52;;;;;;;34.80;26.77;;;;;;;;;;5057635;27;20027;-77
2023/01/04 10:09:18;;;;;;;37.17;27.83;;;;;;;;;;5105272;27;20110;-77
2023/01/04 10:11:59;;;;;;;30.50;21.83;;;;;;;;;;5104694;27;20023;-76
2023/01/04 10:14:33;;;;;;;13.68;11.43;;;;;;;;;;5105687;27;20446;-76
2023/01/04 10:17:19;;;;;;;17.23;14.77;;;;;;;;;;5105761;27;20019;-77
2023/01/04 10:19:48;;;;;;;14.93;13.30;;;;;;;;;;5111835;27;20058;-75
2023/01/04 10:22:26;;;;;;;10.77;9.65;;;;;;;;;;5101797;27;20020;-76
2023/01/04 10:24:58;;;;;;;50.70;39.20;;;;;;;;;;5100347;27;20019;-77
2023/01/04 10:27:30;;;;;;;24.25;21.48;;;;;;;;;;5100808;27;20035;-77
2023/01/04 10:30:14;;;;;;;37.45;32.08;;;;;;;;;;5083875;27;20400;-77
2023/01/04 10:32:43;;;;;;;43.05;36.50;;;;;;;;;;5100136;27;20122;-75
2023/01/04 10:35:27;;;;;;;41.15;32.65;;;;;;;;;;5099904;27;20043;-76
2023/01/04 10:37:59;;;;;;;36.28;26.77;;;;;;;;;;5101638;27;20900;-78
2023/01/04 10:40:27;;;;;;;26.25;23.55;;;;;;;;;;5099727;27;20037;-77
2023/01/04 10:43:03;;;;;;;44.72;33.10;;;;;;;;;;5099072;27;20339;-77
2023/01/04 10:45:39;;;;;;;42.25;32.28;;;;;;;;;;5105681;27;20084;-73
2023/01/04 10:48:04;;;;;;;29.27;26.00;;;;;;;;;;5102044;27;20019;-77
2023/01/04 10:50:35;;;;;;;23.85;20.50;;;;;;;;;;5105385;27;20031;-75
2023/01/04 10:53:04;;;;;;;25.42;18.80;;;;;;;;;;5101061;27;20030;-74
2023/01/04 10:55:39;;;;;;;23.17;18.15;;;;;;;;;;5103251;27;20106;-74
2023/01/04 10:58:07;;;;;;;42.10;28.52;;;;;;;;;;5104110;27;20054;-75
2023/01/04 11:00:38;;;;;;;24.80;22.23;;;;;;;;;;5104484;27;20031;-76
2023/01/04 11:03:08;;;;;;;35.88;25.73;;;;;;;;;;5103698;27;20038;-74
2023/01/04 11:06:09;;;;;;;22.55;17.35;;;;;;;;;;5105172;27;20076;-73
2023/01/04 11:08:43;;;;;;;34.70;27.80;;;;;;;;;;5069171;27;20354;-75
2023/01/04 11:11:09;;;;;;;62.92;46.47;;;;;;;;;;5113271;27;20461;-77
2023/01/04 11:13:35;;;;;;;52.50;42.78;;;;;;;;;;5102353;27;20031;-75
2023/01/04 11:16:01;;;;;;;76.80;57.92;;;;;;;;;;5105331;27;20031;-75
2023/01/04 11:18:27;;;;;;;83.72;57.50;;;;;;;;;;5122292;27;20106;-75
2023/01/04 11:20:53;;;;;;;121.35;74.72;;;;;;;;;;5120259;27;20085;-75
2023/01/04 11:23:19;;;;;;;226.57;132.15;;;;;;;;;;5117511;27;20467;-75
2023/01/04 11:25:49;;;;;;;103.50;66.80;;;;;;;;;;5120643;27;20024;-76
2023/01/04 11:28:34;;;;;;;75.95;53.80;;;;;;;;;;5121537;27;20106;-75
2023/01/04 11:31:09;;;;;;;36.60;32.70;;;;;;;;;;5120158;27;20102;-76
2023/01/04 11:33:53;;;;;;;58.08;45.85;;;;;;;;;;5122164;27;20019;-75
2023/01/04 11:36:45;;;;;;;65.55;58.42;;;;;;;;;;5121804;27;20030;-75
2023/01/04 11:39:17;;;;;;;60.00;53.17;;;;;;;;;;5116363;27;20435;-73
2023/01/04 11:42:12;;;;;;;40.50;36.28;;;;;;;;;;5120994;27;20447;-74
2023/01/04 11:44:38;;;;;;;32.50;29.10;;;;;;;;;;5040394;28;20040;-74
2023/01/04 11:47:19;;;;;;;35.60;30.30;;;;;;;;;;5040279;28;20048;-75
2023/01/04 11:49:45;;;;;;;27.67;24.48;;;;;;;;;;5043203;28;20846;-76
2023/01/04 11:52:29;;;;;;;35.58;32.00;;;;;;;;;;5040137;28;20055;-74
2023/01/04 11:54:54;;;;;;;30.92;27.77;;;;;;;;;;5038863;28;20029;-76
2023/01/04 11:57:20;;;;;;;29.67;26.45;;;;;;;;;;5023880;28;20028;-77
2023/01/04 12:00:05;;;;;;;39.08;24.15;;;;;;;;;;5043617;28;20048;-76
2023/01/04 12:02:30;;;;;;;33.88;27.63;;;;;;;;;;5044115;28;20041;-76
2023/01/04 12:04:55;;;;;;;38.03;25.60;;;;;;;;;;5040641;28;20017;-75
2023/01/04 12:07:30;;;;;;;37.42;28.10;;;;;;;;;;5045249;28;20360;-76
2023/01/04 12:09:59;;;;;;;49.53;44.63;;;;;;;;;;5043018;28;20364;-76
2023/01/04 12:12:28;;;;;;;20.52;18.45;;;;;;;;;;5039734;28;20385;-76
2023/01/04 12:14:54;;;;;;;44.08;39.33;;;;;;;;;;5043160;28;20524;-75
2023/01/04 12:17:29;;;;;;;32.22;24.65;;;;;;;;;;5025020;28;20115;-74
2023/01/04 12:19:56;;;;;;;33.75;27.85;;;;;;;;;;5045781;28;20120;-75
2023/01/04 12:22:37;;;;;;;36.05;31.63;;;;;;;;;;5125107;27;20388;-75
2023/01/04 12:25:04;;;;;;;40.85;36.03;;;;;;;;;;5124558;27;20349;-76
2023/01/04 12:27:30;;;;;;;30.98;26.52;;;;;;;;;;5118588;27;20075;-75
2023/01/04 12:30:02;;;;;;;39.92;35.58;;;;;;;;;;5126627;27;20018;-74
2023/01/04 12:32:27;;;;;;;42.00;37.45;;;;;;;;;;5113006;27;20069;-75
2023/01/04 12:34:53;;;;;;;38.05;33.40;;;;;;;;;;5126195;27;20066;-76
2023/01/04 12:37:44;;;;;;;42.40;33.58;;;;;;;;;;5117565;27;20015;-79
2023/01/04 12:40:28;;;;;;;41.25;36.83;;;;;;;;;;5112943;27;20057;-77
2023/01/04 12:43:24;;;;;;;79.05;58.30;;;;;;;;;;5118948;27;20456;-78
2023/01/04 12:49:02;;;;;;;50.38;43.63;;;;;;;;;;5015010;28;20046;-75
2023/01/04 12:49:03;;;;;;;53.50;46.05;;;;;;;;;;5025504;28;20132;-77
2023/01/04 12:51:29;;;;;;;64.13;51.35;;;;;;;;;;5029004;28;20041;-77
2023/01/04 12:54:02;;;;;;;68.70;60.90;;;;;;;;;;5025935;28;20037;-76
2023/01/04 12:56:45;;;;;;;107.15;80.30;;;;;;;;;;5026302;28;20033;-78
2023/01/04 12:59:13;;;;;;;72.18;60.33;;;;;;;;;;5014140;28;20052;-80
2023/01/04 13:01:38;;;;;;;68.68;48.78;;;;;;;;;;5011044;28;20144;-81
2023/01/04 13:04:22;;;;;;;57.58;44.97;;;;;;;;;;5013236;28;20485;-80
2023/01/04 13:06:48;;;;;;;46.50;38.80;;;;;;;;;;5015807;28;20100;-79
2023/01/04 13:09:16;;;;;;;49.60;40.08;;;;;;;;;;5012403;28;20215;-78
2023/01/04 13:11:53;;;;;;;29.80;26.30;;;;;;;;;;5006463;28;20029;-77
2023/01/04 13:14:27;;;;;;;49.45;40.35;;;;;;;;;;5013141;28;20802;-78
2023/01/04 13:17:08;;;;;;;35.00;31.38;;;;;;;;;;5012954;28;20468;-79
2023/01/04 13:19:36;;;;;;;38.28;32.45;;;;;;;;;;5018212;28;20029;-78
2023/01/04 13:22:09;;;;;;;56.45;43.38;;;;;;;;;;5060160;28;20091;-75
2023/01/04 13:24:35;;;;;;;45.05;36.42;;;;;;;;;;5120202;28;20023;-77
2023/01/04 13:27:05;;;;;;;54.22;45.45;;;;;;;;;;5121092;28;20042;-77
2023/01/04 13:29:35;;;;;;;45.13;38.78;;;;;;;;;;5120940;28;20091;-77
2023/01/04 13:32:05;;;;;;;62.25;46.70;;;;;;;;;;5117869;28;20110;-76
2023/01/04 13:34:35;;;;;;;82.93;69.90;;;;;;;;;;5121778;28;20038;-76
2023/01/04 13:37:03;;;;;;;60.65;51.63;;;;;;;;;;5113998;28;20092;-78
2023/01/04 13:39:29;;;;;;;121.38;90.25;;;;;;;;;;5120968;28;20110;-77
2023/01/04 13:41:55;;;;;;;114.13;84.32;;;;;;;;;;5118604;28;20562;-78
2023/01/04 13:44:40;;;;;;;71.40;52.63;;;;;;;;;;5120329;28;20016;-79
2023/01/04 13:47:07;;;;;;;65.47;48.58;;;;;;;;;;5105429;28;20035;-78
2023/01/04 13:49:36;;;;;;;50.13;43.10;;;;;;;;;;5119008;28;20448;-79
2023/01/04 13:52:19;;;;;;;37.78;34.08;;;;;;;;;;5119268;28;20446;-80
2023/01/04 13:54:45;;;;;;;41.25;36.90;;;;;;;;;;5121229;28;20401;-77
2023/01/04 13:57:13;;;;;;;66.05;55.65;;;;;;;;;;5120183;28;20038;-79
2023/01/04 13:59:39;;;;;;;55.83;46.80;;;;;;;;;;5119173;28;20050;-80
2023/01/04 14:02:14;;;;;;;65.18;48.10;;;;;;;;;;5122341;28;20020;-79
2023/01/04 14:04:41;;;;;;;52.63;40.10;;;;;;;;;;5100332;28;20035;-79
2023/01/04 14:07:07;;;;;;;50.05;37.78;;;;;;;;;;5119392;28;20415;-80
2023/01/04 14:09:42;;;;;;;46.97;36.85;;;;;;;;;;5115907;28;20035;-78
2023/01/04 14:12:12;;;;;;;55.38;41.53;;;;;;;;;;5124435;28;20521;-78
2023/01/04 14:14:52;;;;;;;61.88;48.90;;;;;;;;;;5124694;28;20098;-77
2023/01/04 14:17:22;;;;;;;54.88;41.92;;;;;;;;;;5123631;28;20115;-76
2023/01/04 14:20:06;;;;;;;64.00;52.65;;;;;;;;;;5115057;28;20028;-76
2023/01/04 14:22:31;;;;;;;69.78;57.25;;;;;;;;;;5122013;27;20015;-77
2023/01/04 14:24:58;;;;;;;63.75;51.97;;;;;;;;;;5122888;27;20023;-77
2023/01/04 14:27:30;;;;;;;56.42;45.92;;;;;;;;;;5122770;27;20062;-77
2023/01/04 14:29:55;;;;;;;55.85;43.05;;;;;;;;;;5101892;27;20031;-77
2023/01/04 14:32:21;;;;;;;147.43;131.52;;;;;;;;;;5121144;27;20056;-81
2023/01/04 14:34:46;;;;;;;65.40;57.10;;;;;;;;;;5120884;27;20106;-80
2023/01/04 14:37:12;;;;;;;65.30;49.17;;;;;;;;;;5121659;27;20092;-80
2023/01/04 14:39:38;;;;;;;52.15;40.67;;;;;;;;;;5116395;27;20366;-74
2023/01/04 14:42:03;;;;;;;63.58;50.75;;;;;;;;;;5118667;27;20031;-74
2023/01/04 14:44:30;;;;;;;49.00;41.00;;;;;;;;;;5116218;27;20015;-78
2023/01/04 14:46:57;;;;;;;64.65;50.65;;;;;;;;;;5121110;27;20098;-76
2023/01/04 14:49:25;;;;;;;60.88;49.47;;;;;;;;;;5123054;27;20023;-75
2023/01/04 14:52:01;;;;;;;94.18;72.63;;;;;;;;;;5122916;27;20062;-78
2023/01/04 14:54:27;;;;;;;74.72;57.22;;;;;;;;;;5099898;27;20130;-78
2023/01/04 14:56:53;;;;;;;81.72;66.25;;;;;;;;;;5119878;27;20019;-75
2023/01/04 14:59:18;;;;;;;90.28;71.72;;;;;;;;;;5103424;27;20112;-75
2023/01/04 15:01:43;;;;;;;67.40;51.95;;;;;;;;;;5124561;27;20373;-75
2023/01/04 15:04:09;;;;;;;67.93;52.72;;;;;;;;;;5120812;27;20023;-75
2023/01/04 15:06:34;;;;;;;76.57;57.00;;;;;;;;;;5120333;27;20051;-74
2023/01/04 15:09:00;;;;;;;112.78;93.05;;;;;;;;;;5121132;27;20032;-74
2023/01/04 15:11:25;;;;;;;97.95;85.97;;;;;;;;;;5120374;27;20517;-75
2023/01/04 15:13:50;;;;;;;94.65;76.70;;;;;;;;;;5121101;27;20038;-76